createdAt,value
2023-04-14T00:00:05.527Z,99.90
2023-04-14T00:02:42.559Z,99.90
2023-04-14T00:05:13.442Z,99.90
2023-04-14T00:07:43.494Z,99.90
2023-04-14T00:10:13.640Z,99.90
2023-04-14T00:12:43.795Z,99.90
2023-04-14T00:15:13.925Z,99.90
2023-04-14T00:17:44.256Z,99.90
2023-04-14T00:20:14.156Z,99.90
2023-04-14T00:22:44.175Z,99.90
2023-04-14T00:25:14.073Z,99.90
2023-04-14T00:27:44.337Z,99.90
2023-04-14T00:30:14.365Z,99.90
2023-04-14T00:32:44.315Z,99.90
2023-04-14T00:35:14.165Z,99.90
2023-04-14T00:37:44.409Z,99.90
2023-04-14T00:40:14.295Z,99.90
2023-04-14T00:42:48.762Z,99.90
2023-04-14T00:45:18.997Z,99.90
2023-04-14T00:47:52.176Z,99.90
2023-04-14T00:50:23.443Z,99.90
2023-04-14T00:52:55.064Z,99.90
2023-04-14T00:55:25.385Z,99.90
2023-04-14T00:57:56.557Z,99.90
2023-04-14T01:00:27.043Z,99.90
2023-04-14T01:02:57.840Z,99.90
2023-04-14T01:05:28.263Z,99.90
2023-04-14T01:07:58.292Z,99.90
2023-04-14T01:10:36.410Z,99.90
2023-04-14T01:13:35.074Z,99.90
2023-04-14T01:16:31.897Z,99.90
2023-04-14T01:19:38.896Z,99.90
2023-04-14T01:22:11.192Z,99.90
2023-04-14T01:25:20.478Z,99.90
2023-04-14T01:28:29.557Z,99.90
2023-04-14T01:31:26.010Z,99.90
2023-04-14T01:34:35.284Z,99.90
2023-04-14T01:37:17.874Z,99.90
2023-04-14T01:40:00.603Z,99.90
2023-04-14T01:42:38.230Z,99.90
2023-04-14T01:45:17.495Z,99.90
2023-04-14T01:47:48.427Z,99.90
2023-04-14T01:50:21.192Z,99.90
2023-04-14T01:52:58.801Z,99.90
2023-04-14T01:55:31.580Z,99.90
2023-04-14T01:58:03.186Z,99.90
2023-04-14T02:00:37.422Z,99.90
2023-04-14T02:03:09.501Z,99.90
2023-04-14T02:05:41.737Z,99.90
2023-04-14T02:08:15.683Z,99.90
2023-04-14T02:10:48.265Z,99.90
2023-04-14T02:13:21.565Z,99.90
2023-04-14T02:15:53.188Z,99.90
2023-04-14T02:18:25.679Z,99.90
2023-04-14T02:20:57.791Z,99.90
2023-04-14T02:23:28.163Z,99.90
2023-04-14T02:26:04.456Z,99.90
2023-04-14T02:28:37.124Z,99.90
2023-04-14T02:31:14.828Z,99.90
2023-04-14T02:33:47.823Z,99.90
2023-04-14T02:36:25.180Z,99.90
2023-04-14T02:39:01.030Z,99.90
2023-04-14T02:41:33.367Z,99.90
2023-04-14T02:44:20.046Z,99.90
2023-04-14T02:47:08.306Z,99.90
2023-04-14T02:49:46.464Z,99.90
2023-04-14T02:52:21.069Z,99.90
2023-04-14T02:54:53.609Z,99.90
2023-04-14T02:57:25.271Z,99.90
2023-04-14T02:59:57.568Z,99.90
2023-04-14T03:02:29.364Z,99.90
2023-04-14T03:05:08.040Z,99.90
2023-04-14T03:07:58.161Z,99.90
2023-04-14T03:10:30.488Z,99.90
2023-04-14T03:13:05.647Z,99.90
2023-04-14T03:15:37.705Z,99.90
2023-04-14T03:18:09.005Z,99.90
2023-04-14T03:20:39.970Z,99.90
2023-04-14T03:23:13.835Z,99.90
2023-04-14T03:25:53.761Z,99.90
2023-04-14T03:28:32.327Z,99.90
2023-04-14T03:31:07.090Z,99.90
2023-04-14T03:33:55.791Z,99.90
2023-04-14T03:36:32.984Z,99.90
2023-04-14T03:39:06.640Z,99.90
2023-04-14T03:41:49.089Z,99.90
2023-04-14T03:44:21.788Z,99.90
2023-04-14T03:46:56.010Z,99.90
2023-04-14T03:49:27.543Z,99.90
2023-04-14T03:52:09.636Z,99.90
2023-04-14T03:54:43.462Z,99.90
2023-04-14T03:57:19.312Z,99.90
2023-04-14T03:59:52.139Z,99.90
2023-04-14T04:02:27.857Z,99.90
2023-04-14T04:05:00.872Z,99.90
2023-04-14T04:07:33.645Z,99.90
2023-04-14T04:10:08.709Z,99.90
2023-04-14T04:12:40.809Z,99.90
2023-04-14T04:15:12.127Z,99.90
2023-04-14T04:17:45.876Z,99.90
2023-04-14T04:20:17.889Z,99.90
2023-04-14T04:22:53.901Z,99.90
2023-04-14T04:25:24.052Z,99.90
2023-04-14T04:28:04.172Z,99.90
2023-04-14T04:30:40.408Z,99.90
2023-04-14T04:33:12.390Z,99.90
2023-04-14T04:35:44.650Z,99.90
2023-04-14T04:38:15.683Z,99.90
2023-04-14T04:40:48.225Z,99.90
2023-04-14T04:43:24.254Z,99.90
2023-04-14T04:46:26.506Z,99.90
2023-04-14T04:48:57.580Z,99.90
2023-04-14T04:51:30.265Z,99.90
2023-04-14T04:54:00.341Z,99.90
2023-04-14T04:56:30.580Z,99.90
2023-04-14T04:59:04.879Z,99.90
2023-04-14T05:01:35.079Z,99.90
2023-04-14T05:04:05.685Z,99.90
2023-04-14T05:06:39.340Z,99.90
2023-04-14T05:09:09.590Z,99.90
2023-04-14T05:11:39.522Z,99.90
2023-04-14T05:14:09.743Z,99.20
2023-04-14T05:16:39.634Z,99.70
2023-04-14T05:19:09.666Z,98.70
2023-04-14T05:21:39.518Z,98.90
2023-04-14T05:24:11.146Z,99.60
2023-04-14T05:29:14.165Z,98.20
2023-04-14T05:31:44.106Z,99.00
2023-04-14T05:34:14.209Z,98.30
2023-04-14T05:36:44.112Z,99.20
2023-04-14T05:39:15.078Z,99.40
2023-04-14T05:41:44.857Z,98.50
2023-04-14T05:44:14.991Z,97.20
2023-04-14T05:46:44.935Z,97.30
2023-04-14T05:49:14.982Z,98.20
2023-04-14T05:51:45.363Z,97.10
2023-04-14T05:54:15.970Z,96.00
2023-04-14T05:56:45.786Z,96.10
2023-04-14T05:59:17.795Z,95.90
2023-04-14T06:01:48.082Z,96.50
2023-04-14T06:04:18.427Z,96.10
2023-04-14T06:06:48.621Z,95.40
2023-04-14T06:09:18.372Z,95.60
2023-04-14T06:11:48.333Z,96.40
2023-04-14T06:14:18.142Z,95.70
2023-04-14T06:16:48.189Z,94.80
2023-04-14T06:19:20.241Z,94.20
2023-04-14T06:21:50.517Z,94.00
2023-04-14T06:24:20.364Z,94.40
2023-04-14T06:26:50.373Z,92.00
2023-04-14T06:29:20.713Z,91.10
2023-04-14T06:31:53.221Z,90.40
2023-04-14T06:34:23.415Z,90.20
2023-04-14T06:36:54.392Z,90.40
2023-04-14T06:39:24.826Z,91.10
2023-04-14T06:41:54.760Z,90.20
2023-04-14T06:44:25.879Z,90.50
2023-04-14T06:46:57.167Z,88.60
2023-04-14T06:49:27.418Z,86.90
2023-04-14T06:51:57.826Z,88.80
2023-04-14T06:54:28.126Z,89.90
2023-04-14T06:56:59.505Z,90.50
2023-04-14T06:59:31.349Z,88.40
2023-04-14T07:02:01.290Z,86.10
2023-04-14T07:04:31.645Z,85.30
2023-04-14T07:07:03.004Z,86.10
2023-04-14T07:09:33.271Z,87.00
2023-04-14T07:12:05.534Z,87.10
2023-04-14T07:14:35.727Z,85.10
2023-04-14T07:17:05.500Z,85.60
2023-04-14T07:19:35.482Z,88.40
2023-04-14T07:22:05.349Z,86.20
2023-04-14T07:24:35.539Z,85.00
2023-04-14T07:27:05.302Z,85.10
2023-04-14T07:29:36.392Z,83.20
2023-04-14T07:32:06.718Z,84.80
2023-04-14T07:34:36.532Z,83.90
2023-04-14T07:37:06.460Z,82.40
2023-04-14T07:39:36.935Z,82.40
2023-04-14T07:42:07.331Z,82.30
2023-04-14T07:44:37.484Z,81.40
2023-04-14T07:47:07.475Z,83.50
2023-04-14T07:49:38.408Z,82.50
2023-04-14T07:52:09.280Z,83.80
2023-04-14T07:54:39.021Z,85.40
2023-04-14T07:57:11.467Z,82.20
2023-04-14T07:59:44.313Z,86.10
2023-04-14T08:02:14.501Z,82.90
2023-04-14T08:04:44.710Z,83.90
2023-04-14T08:07:14.675Z,87.10
2023-04-14T08:09:44.948Z,85.00
2023-04-14T08:12:15.239Z,84.00
2023-04-14T08:14:45.179Z,80.30
2023-04-14T08:17:15.565Z,82.90
2023-04-14T08:19:45.360Z,80.90
2023-04-14T08:22:15.516Z,81.80
2023-04-14T08:24:45.317Z,80.00
2023-04-14T08:27:15.377Z,82.30
2023-04-14T08:29:45.218Z,79.70
2023-04-14T08:32:15.479Z,79.50
2023-04-14T08:35:39.536Z,77.80
2023-04-14T08:37:35.929Z,84.20
2023-04-14T08:40:06.359Z,78.90
2023-04-14T08:42:36.411Z,79.70
2023-04-14T08:45:06.589Z,76.40
2023-04-14T08:47:39.784Z,80.60
2023-04-14T08:50:17.981Z,79.60
2023-04-14T08:52:51.730Z,77.30
2023-04-14T08:55:22.171Z,78.70
2023-04-14T08:57:53.697Z,79.70
2023-04-14T09:00:24.508Z,78.60
2023-04-14T09:02:56.367Z,79.10
2023-04-14T09:05:27.556Z,79.20
2023-04-14T09:07:57.845Z,76.40
2023-04-14T09:10:28.497Z,78.60
2023-04-14T09:12:59.187Z,78.40
2023-04-14T09:15:30.249Z,77.10
2023-04-14T09:18:00.325Z,76.80
2023-04-14T09:20:34.487Z,80.50
2023-04-14T09:23:11.542Z,79.80
2023-04-14T09:25:42.677Z,78.50
2023-04-14T09:28:12.926Z,75.90
2023-04-14T09:30:43.248Z,75.10
2023-04-14T09:33:24.052Z,76.40
2023-04-14T09:35:54.534Z,73.50
2023-04-14T09:38:44.199Z,73.70
2023-04-14T09:41:19.228Z,72.80
2023-04-14T09:43:49.481Z,73.80
2023-04-14T09:46:19.421Z,75.40
2023-04-14T09:48:59.267Z,74.90
2023-04-14T09:51:34.612Z,75.00
2023-04-14T09:54:06.549Z,73.80
2023-04-14T09:56:36.969Z,78.20
2023-04-14T09:59:07.088Z,79.20
2023-04-14T10:01:38.212Z,80.70
2023-04-14T10:04:25.466Z,81.90
2023-04-14T10:06:59.848Z,82.00
2023-04-14T10:09:31.435Z,83.20
2023-04-14T10:12:21.210Z,81.20
2023-04-14T10:14:51.568Z,81.70
2023-04-14T10:17:21.799Z,83.20
2023-04-14T10:19:52.028Z,82.10
2023-04-14T10:22:22.640Z,82.40
2023-04-14T10:24:54.115Z,82.30
2023-04-14T10:27:24.654Z,83.30
2023-04-14T10:29:55.405Z,84.40
2023-04-14T10:32:28.019Z,85.70
2023-04-14T10:35:10.764Z,85.70
2023-04-14T10:37:40.766Z,87.80
2023-04-14T10:40:11.334Z,86.40
2023-04-14T10:43:01.010Z,87.10
2023-04-14T10:45:31.020Z,87.40
2023-04-14T10:50:50.575Z,87.50
2023-04-14T10:53:20.559Z,87.90
2023-04-14T10:55:52.033Z,88.60
2023-04-14T10:58:24.828Z,88.40
2023-04-14T11:00:56.016Z,89.40
2023-04-14T11:03:28.250Z,89.80
2023-04-14T11:06:00.044Z,90.10
2023-04-14T11:08:37.374Z,90.20
2023-04-14T11:11:09.133Z,90.60
2023-04-14T11:13:40.343Z,90.90
2023-04-14T11:16:10.537Z,91.30
2023-04-14T11:18:46.779Z,90.90
2023-04-14T11:21:19.880Z,90.90
2023-04-14T11:23:50.775Z,91.50
2023-04-14T11:26:21.167Z,91.40
2023-04-14T11:28:50.998Z,91.80
2023-04-14T11:31:23.234Z,91.60
2023-04-14T11:33:53.323Z,91.50
2023-04-14T11:36:23.159Z,91.90
2023-04-14T11:38:53.417Z,92.40
2023-04-14T11:41:23.691Z,92.70
2023-04-14T11:43:54.501Z,92.90
2023-04-14T11:46:24.752Z,93.20
2023-04-14T11:48:59.103Z,92.60
2023-04-14T11:51:33.864Z,93.10
2023-04-14T11:54:04.842Z,93.50
2023-04-14T11:56:35.284Z,93.60
2023-04-14T11:59:06.883Z,93.90
2023-04-14T12:01:37.130Z,94.50
2023-04-14T12:04:08.102Z,94.50
2023-04-14T12:06:40.695Z,94.90
2023-04-14T12:09:13.719Z,95.20
2023-04-14T12:11:54.788Z,95.40
2023-04-14T12:14:24.963Z,96.40
2023-04-14T12:16:54.858Z,96.20
2023-04-14T12:19:25.277Z,96.60
2023-04-14T12:21:55.197Z,97.30
2023-04-14T12:24:25.372Z,97.70
2023-04-14T12:26:55.198Z,97.80
2023-04-14T12:29:25.449Z,98.70
2023-04-14T12:31:58.901Z,99.80
2023-04-14T12:34:29.781Z,99.90
2023-04-14T12:36:59.682Z,99.90
2023-04-14T12:39:30.009Z,99.90
2023-04-14T12:42:01.079Z,99.90
2023-04-14T12:44:31.886Z,99.90
2023-04-14T12:47:01.750Z,99.90
2023-04-14T12:49:37.798Z,99.90
2023-04-14T12:52:09.626Z,99.90
2023-04-14T12:54:59.501Z,99.90
2023-04-14T12:57:30.540Z,99.90
2023-04-14T13:00:06.568Z,99.90
2023-04-14T13:02:37.865Z,99.90
2023-04-14T13:05:08.342Z,99.90
2023-04-14T13:07:38.288Z,99.90
2023-04-14T13:10:09.212Z,99.90
2023-04-14T13:12:39.201Z,99.90
2023-04-14T13:16:10.296Z,99.90
2023-04-14T13:18:00.575Z,99.90
2023-04-14T13:20:32.441Z,99.90
2023-04-14T13:23:02.919Z,99.90
2023-04-14T13:25:32.725Z,99.90
2023-04-14T13:28:02.877Z,99.90
2023-04-14T13:30:33.764Z,99.90
2023-04-14T13:33:03.982Z,99.90
2023-04-14T13:35:33.854Z,99.90
2023-04-14T13:38:04.023Z,99.90
2023-04-14T13:40:34.129Z,99.90
2023-04-14T13:43:04.726Z,99.90
2023-04-14T13:45:35.537Z,99.90
2023-04-14T13:48:05.920Z,99.90
2023-04-14T13:50:35.877Z,99.90
2023-04-14T13:53:06.149Z,99.90
2023-04-14T13:55:37.511Z,99.90
2023-04-14T13:58:08.266Z,99.90
2023-04-14T14:00:38.388Z,99.90
2023-04-14T14:03:08.713Z,99.90
2023-04-14T14:05:38.598Z,99.90
2023-04-14T14:08:08.659Z,99.90
2023-04-14T14:10:38.725Z,99.90
2023-04-14T14:13:08.991Z,99.90
2023-04-14T14:15:39.832Z,99.90
2023-04-14T14:18:13.328Z,99.90
2023-04-14T14:20:43.464Z,99.90
2023-04-14T14:23:14.678Z,99.90
2023-04-14T14:25:47.050Z,99.90
2023-04-14T14:28:17.077Z,99.90
2023-04-14T14:30:46.931Z,99.90
2023-04-14T14:33:17.507Z,99.90
2023-04-14T14:35:47.751Z,99.90
2023-04-14T14:38:18.187Z,99.90
2023-04-14T14:40:48.676Z,99.90
2023-04-14T14:43:18.665Z,99.90
2023-04-14T14:45:48.669Z,99.90
2023-04-14T14:48:19.077Z,99.90
2023-04-14T14:50:49.003Z,99.90
2023-04-14T14:53:19.034Z,99.90
2023-04-14T14:55:48.851Z,99.90
2023-04-14T14:58:19.690Z,99.90
2023-04-14T15:00:49.665Z,99.90
2023-04-14T15:03:22.640Z,99.90
2023-04-14T15:05:56.004Z,99.90
2023-04-14T15:08:26.125Z,99.90
2023-04-14T15:10:56.214Z,99.90
2023-04-14T15:13:26.505Z,99.90
2023-04-14T15:15:56.364Z,99.90
2023-04-14T15:18:26.548Z,99.90
2023-04-14T15:20:57.018Z,99.90
2023-04-14T15:23:27.761Z,99.90
2023-04-14T15:25:57.702Z,99.90
2023-04-14T15:28:27.696Z,99.90
2023-04-14T15:30:57.641Z,99.90
2023-04-14T15:33:28.441Z,99.90
2023-04-14T15:35:58.534Z,99.90
2023-04-14T15:38:28.615Z,99.90
2023-04-14T15:40:59.159Z,99.90
2023-04-14T15:43:30.594Z,99.90
2023-04-14T15:46:00.811Z,99.90
2023-04-14T15:48:31.137Z,99.90
2023-04-14T15:51:01.274Z,99.90
2023-04-14T15:53:31.135Z,99.90
2023-04-14T15:56:01.390Z,99.90
2023-04-14T15:58:31.887Z,99.90
2023-04-14T16:01:02.261Z,99.90
2023-04-14T16:03:32.368Z,99.90
2023-04-14T16:06:08.616Z,99.90
2023-04-14T16:08:38.898Z,99.90
2023-04-14T16:11:09.512Z,99.90
2023-04-14T16:13:39.852Z,99.90
2023-04-14T16:16:09.755Z,99.90
2023-04-14T16:18:39.737Z,99.90
2023-04-14T16:21:10.011Z,99.90
2023-04-14T16:23:40.183Z,99.90
2023-04-14T16:26:10.175Z,99.90
2023-04-14T16:28:40.532Z,99.90
2023-04-14T16:31:10.858Z,99.90
2023-04-14T16:33:41.134Z,99.90
2023-04-14T16:36:11.108Z,99.90
2023-04-14T16:38:41.208Z,99.90
2023-04-14T16:41:12.131Z,99.90
2023-04-14T16:43:42.292Z,99.90
2023-04-14T16:46:12.436Z,99.90
2023-04-14T16:48:42.841Z,99.90
2023-04-14T16:51:13.734Z,99.90
2023-04-14T16:53:45.649Z,99.90
2023-04-14T16:56:15.816Z,99.90
2023-04-14T16:58:46.752Z,99.90
2023-04-14T17:01:17.517Z,99.90
2023-04-14T17:03:47.876Z,99.90
2023-04-14T17:06:17.741Z,99.90
2023-04-14T17:08:48.004Z,99.90
2023-04-14T17:11:18.146Z,99.90
2023-04-14T17:13:48.176Z,99.90
2023-04-14T17:16:18.179Z,99.90
2023-04-14T17:18:49.796Z,99.90
2023-04-14T17:21:19.819Z,99.90
2023-04-14T17:23:50.332Z,99.90
2023-04-14T17:26:21.522Z,99.90
2023-04-14T17:28:52.004Z,99.90
2023-04-14T17:31:22.521Z,99.90
2023-04-14T17:33:52.836Z,99.90
2023-04-14T17:36:22.698Z,99.90
2023-04-14T17:38:54.009Z,99.90
2023-04-14T17:41:24.368Z,99.90
2023-04-14T17:43:54.334Z,99.90
2023-04-14T17:46:30.900Z,99.90
2023-04-14T17:49:05.120Z,99.90
2023-04-14T17:51:35.880Z,99.90
2023-04-14T17:54:07.127Z,99.90
2023-04-14T17:56:37.176Z,99.90
2023-04-14T17:59:07.269Z,99.90
2023-04-14T18:01:37.681Z,99.90
2023-04-14T18:04:07.676Z,99.90
2023-04-14T18:06:38.076Z,99.90
2023-04-14T18:09:07.889Z,99.90
2023-04-14T18:11:38.131Z,99.90
2023-04-14T18:14:08.198Z,99.90
2023-04-14T18:16:38.969Z,99.90
2023-04-14T18:19:08.981Z,99.90
2023-04-14T18:21:39.634Z,99.90
2023-04-14T18:26:42.636Z,99.90
2023-04-14T18:29:13.562Z,99.90
2023-04-14T18:31:44.134Z,99.90
2023-04-14T18:34:15.298Z,99.90
2023-04-14T18:36:45.785Z,99.90
2023-04-14T18:39:17.759Z,99.90
2023-04-14T18:41:49.184Z,99.90
2023-04-14T18:44:19.182Z,99.90
2023-04-14T18:46:49.737Z,99.90
2023-04-14T18:49:20.583Z,99.90
2023-04-14T18:51:51.043Z,99.90
2023-04-14T18:54:20.889Z,99.90
2023-04-14T18:56:51.430Z,99.90
2023-04-14T18:59:21.569Z,99.90
2023-04-14T19:01:51.482Z,99.90
2023-04-14T19:04:22.440Z,99.90
2023-04-14T19:06:52.554Z,99.90
2023-04-14T19:09:22.343Z,99.90
2023-04-14T19:11:52.498Z,99.90
2023-04-14T19:14:22.397Z,99.90
2023-04-14T19:16:52.309Z,99.90
2023-04-14T19:19:22.067Z,99.90
2023-04-14T19:21:52.171Z,99.90
2023-04-14T19:24:21.905Z,99.90
2023-04-14T19:26:51.834Z,99.90
2023-04-14T19:29:21.659Z,99.90
2023-04-14T19:31:51.856Z,99.90
2023-04-14T19:34:21.690Z,99.90
2023-04-14T19:36:52.031Z,99.90
2023-04-14T19:39:22.423Z,99.90
2023-04-14T19:41:52.825Z,99.90
2023-04-14T19:44:22.574Z,99.90
2023-04-14T19:46:53.057Z,99.90
2023-04-14T19:49:22.996Z,99.90
2023-04-14T19:51:54.221Z,99.90
2023-04-14T19:54:24.174Z,99.90
2023-04-14T19:56:53.970Z,99.90
2023-04-14T19:59:24.495Z,99.90
2023-04-14T20:01:55.305Z,99.90
2023-04-14T20:04:25.814Z,99.90
2023-04-14T20:06:56.741Z,99.90
2023-04-14T20:09:27.409Z,99.90
2023-04-14T20:11:57.574Z,99.90
2023-04-14T20:14:27.462Z,99.90
2023-04-14T20:16:57.960Z,99.90
2023-04-14T20:19:27.878Z,99.90
2023-04-14T20:21:58.092Z,99.90
2023-04-14T20:24:27.961Z,99.90
2023-04-14T20:26:57.941Z,99.90
2023-04-14T20:29:27.874Z,99.90
2023-04-14T20:31:57.832Z,99.90
2023-04-14T20:34:28.080Z,99.90
2023-04-14T20:36:58.105Z,99.90
2023-04-14T20:39:27.921Z,99.90
2023-04-14T20:41:58.078Z,99.90
2023-04-14T20:44:28.017Z,99.90
2023-04-14T20:46:58.576Z,99.90
2023-04-14T20:49:28.615Z,99.90
2023-04-14T20:51:59.913Z,99.90
2023-04-14T20:54:30.106Z,99.90
2023-04-14T20:57:00.002Z,99.90
2023-04-14T20:59:30.713Z,99.90
2023-04-14T21:02:00.798Z,99.90
2023-04-14T21:04:30.633Z,99.90
2023-04-14T21:07:00.733Z,99.90
2023-04-14T21:09:31.585Z,99.90
2023-04-14T21:12:14.685Z,99.90
2023-04-14T21:15:43.501Z,99.90
2023-04-14T21:17:37.484Z,99.90
2023-04-14T21:20:08.107Z,99.90
2023-04-14T21:22:37.974Z,99.90
2023-04-14T21:25:08.582Z,99.90
2023-04-14T21:27:38.818Z,99.90
2023-04-14T21:30:10.580Z,99.90
2023-04-14T21:32:41.501Z,99.90
2023-04-14T21:35:11.753Z,99.90
2023-04-14T21:37:41.486Z,99.90
2023-04-14T21:40:12.601Z,99.90
2023-04-14T21:42:42.366Z,99.90
2023-04-14T21:45:12.334Z,99.90
2023-04-14T21:47:42.600Z,99.90
2023-04-14T21:50:12.630Z,99.90
2023-04-14T21:52:42.944Z,99.90
2023-04-14T21:55:12.675Z,99.90
2023-04-14T21:57:49.671Z,99.90
2023-04-14T22:00:19.908Z,99.90
2023-04-14T22:02:50.229Z,99.90
2023-04-14T22:05:21.369Z,99.90
2023-04-14T22:07:51.388Z,99.90
2023-04-14T22:10:23.149Z,99.90
2023-04-14T22:12:53.464Z,99.90
2023-04-14T22:15:23.808Z,99.90
2023-04-14T22:17:53.689Z,99.90
2023-04-14T22:20:25.231Z,99.90
2023-04-14T22:22:56.049Z,99.90
2023-04-14T22:25:25.993Z,99.90
2023-04-14T22:27:56.107Z,99.90
2023-04-14T22:30:25.810Z,99.90
2023-04-14T22:32:55.680Z,99.90
2023-04-14T22:35:25.580Z,99.90
2023-04-14T22:37:55.637Z,99.90
2023-04-14T22:40:26.016Z,99.90
2023-04-14T22:42:56.109Z,99.90
2023-04-14T22:45:25.864Z,99.90
2023-04-14T22:47:55.849Z,99.90
2023-04-14T22:50:26.030Z,99.90
2023-04-14T22:52:55.984Z,99.90
2023-04-14T22:55:25.744Z,99.90
2023-04-14T22:57:55.738Z,99.90
2023-04-14T23:00:26.229Z,99.90
2023-04-14T23:02:57.263Z,99.90
2023-04-14T23:05:27.101Z,99.90
2023-04-14T23:07:57.083Z,99.90
2023-04-14T23:10:26.918Z,99.90
2023-04-14T23:12:57.051Z,99.90
2023-04-14T23:15:26.678Z,99.90
2023-04-14T23:17:57.146Z,99.90
2023-04-14T23:20:27.088Z,99.90
2023-04-14T23:22:57.601Z,99.90
2023-04-14T23:25:27.210Z,99.90
2023-04-14T23:27:57.066Z,99.90
2023-04-14T23:30:27.534Z,99.90
2023-04-14T23:32:57.919Z,99.90
2023-04-14T23:35:27.656Z,99.90
2023-04-14T23:38:03.554Z,99.90
2023-04-14T23:40:35.195Z,99.90
2023-04-14T23:43:05.293Z,99.90
2023-04-14T23:45:38.494Z,99.90
2023-04-14T23:48:09.193Z,99.90
2023-04-14T23:51:00.487Z,99.90
2023-04-14T23:53:28.906Z,99.90
2023-04-14T23:55:58.908Z,99.90
2023-04-14T23:58:30.353Z,99.90
